Time;durP1;ratioP1;P1;durP2;ratioP2;P2;SDS_P1;SDS_P2;PMS_P1;PMS_P2;Temp;Humidity;BMP_temperature;BMP_pressure;BME280_temperature;BME280_humidity;BME280_pressure;Samples;Min_cycle;Max_cycle;Signal;HPM_P1;HPM_P2
2022/10/23 00:02:23;;;;;;;0.00;0.00;;;12.60;99.90;;;;;;5013841;28;20218;-68
2022/10/23 00:04:50;;;;;;;0.22;0.22;;;12.60;99.90;;;;;;5015125;28;20179;-67
2022/10/23 00:07:16;;;;;;;0.00;0.00;;;12.70;99.90;;;;;;4997043;28;20714;-68
2022/10/23 00:09:41;;;;;;;0.10;0.10;;;12.70;99.90;;;;;;5009268;28;20246;-68
2022/10/23 00:12:07;;;;;;;0.00;0.00;;;12.70;99.90;;;;;;5003959;28;20654;-67
2022/10/23 00:14:33;;;;;;;0.00;0.00;;;12.70;99.90;;;;;;5010260;28;20314;-68
2022/10/23 00:16:58;;;;;;;0.10;0.10;;;12.80;99.90;;;;;;5011562;28;20245;-68
2022/10/23 00:19:24;;;;;;;0.00;0.00;;;12.80;99.90;;;;;;5006279;28;20233;-68
2022/10/23 00:21:49;;;;;;;0.00;0.00;;;12.80;99.90;;;;;;5011743;28;20587;-68
2022/10/23 00:24:15;;;;;;;0.00;0.00;;;12.80;99.90;;;;;;5015059;28;20193;-67
2022/10/23 00:26:41;;;;;;;0.00;0.00;;;12.90;99.90;;;;;;5001577;28;20191;-68
2022/10/23 00:29:07;;;;;;;0.00;0.00;;;12.90;99.90;;;;;;4999009;28;20217;-67
2022/10/23 00:31:33;;;;;;;0.00;0.00;;;12.90;99.90;;;;;;5012045;28;20294;-68
2022/10/23 00:33:59;;;;;;;0.00;0.00;;;12.90;99.90;;;;;;5012748;28;20700;-67
2022/10/23 00:36:24;;;;;;;0.00;0.00;;;13.00;99.90;;;;;;5010623;28;20207;-67
2022/10/23 00:38:50;;;;;;;0.00;0.00;;;13.00;99.90;;;;;;4995430;28;20184;-67
2022/10/23 00:41:21;;;;;;;0.20;0.10;;;13.00;99.90;;;;;;4998972;28;20200;-67
2022/10/23 00:44:00;;;;;;;0.10;0.10;;;12.90;99.90;;;;;;4997889;28;20521;-67
2022/10/23 00:46:26;;;;;;;0.00;0.00;;;12.90;99.90;;;;;;5004617;28;21001;-67
2022/10/23 00:48:52;;;;;;;0.25;0.25;;;12.90;99.90;;;;;;4999624;28;20690;-67
2022/10/23 00:51:18;;;;;;;0.00;0.00;;;12.90;99.90;;;;;;4999152;28;20187;-67
2022/10/23 00:53:46;;;;;;;0.00;0.00;;;12.90;99.90;;;;;;5002251;28;20708;-67
2022/10/23 00:56:12;;;;;;;0.00;0.00;;;12.80;99.90;;;;;;5013796;28;20652;-67
2022/10/23 00:58:38;;;;;;;0.00;0.00;;;12.80;99.90;;;;;;5009438;28;20179;-68
2022/10/23 01:01:16;;;;;;;0.00;0.00;;;12.80;99.90;;;;;;5006910;28;20218;-67
2022/10/23 01:03:42;;;;;;;0.05;0.05;;;12.70;99.90;;;;;;5003921;28;20253;-67
2022/10/23 01:06:16;;;;;;;0.00;0.00;;;12.70;99.90;;;;;;5000591;28;20330;-67
2022/10/23 01:08:56;;;;;;;0.17;0.17;;;12.70;99.90;;;;;;4996036;28;20179;-68
2022/10/23 01:11:37;;;;;;;0.00;0.00;;;12.70;99.90;;;;;;4994969;28;20187;-67
2022/10/23 01:14:06;;;;;;;0.00;0.00;;;12.60;99.90;;;;;;5001446;28;20257;-67
2022/10/23 01:16:40;;;;;;;0.00;0.00;;;12.60;99.90;;;;;;4996793;28;20188;-68
2022/10/23 01:19:18;;;;;;;0.00;0.00;;;12.60;99.90;;;;;;5004269;28;20638;-67
2022/10/23 01:21:54;;;;;;;0.00;0.00;;;12.60;99.90;;;;;;4996523;28;20221;-68
2022/10/23 01:24:55;;;;;;;0.00;0.00;;;12.60;99.90;;;;;;5001028;28;20183;-67
2022/10/23 01:27:24;;;;;;;0.00;0.00;;;12.60;99.90;;;;;;4991174;28;20194;-68
2022/10/23 01:30:12;;;;;;;0.00;0.00;;;12.60;99.90;;;;;;5000176;28;20709;-68
2022/10/23 01:32:48;;;;;;;0.00;0.00;;;12.50;99.90;;;;;;5001945;28;20184;-68
2022/10/23 01:35:44;;;;;;;0.00;0.00;;;12.50;99.90;;;;;;5009050;28;20183;-68
2022/10/23 01:38:21;;;;;;;0.00;0.00;;;12.60;99.90;;;;;;5011634;28;20508;-68
2022/10/23 01:40:54;;;;;;;0.00;0.00;;;12.60;99.90;;;;;;5007691;28;20193;-68
2022/10/23 01:43:27;;;;;;;0.00;0.00;;;12.70;99.90;;;;;;5007368;28;20186;-68
2022/10/23 01:46:00;;;;;;;0.00;0.00;;;12.70;99.90;;;;;;5010004;28;20180;-68
2022/10/23 01:48:28;;;;;;;0.00;0.00;;;12.80;99.90;;;;;;4994145;28;20721;-69
2022/10/23 01:51:02;;;;;;;0.00;0.00;;;12.80;99.90;;;;;;5000894;28;20184;-68
2022/10/23 01:53:30;;;;;;;0.03;0.03;;;12.90;99.90;;;;;;5003719;28;20175;-68
2022/10/23 01:55:58;;;;;;;0.03;0.00;;;12.90;99.90;;;;;;5000377;28;20223;-68
2022/10/23 01:58:28;;;;;;;0.10;0.10;;;13.00;99.90;;;;;;5012175;28;20183;-68
2022/10/23 02:00:57;;;;;;;0.00;0.00;;;13.00;99.90;;;;;;5008770;28;20241;-68
2022/10/23 02:03:23;;;;;;;0.03;0.03;;;13.00;99.90;;;;;;4993257;28;20180;-68
2022/10/23 02:05:49;;;;;;;0.00;0.00;;;13.00;99.90;;;;;;4996020;28;20184;-64
2022/10/23 02:08:15;;;;;;;0.00;0.00;;;13.00;99.90;;;;;;4997265;28;20192;-67
2022/10/23 02:11:00;;;;;;;0.00;0.00;;;13.00;99.90;;;;;;4997086;28;20720;-67
2022/10/23 02:13:51;;;;;;;0.00;0.00;;;12.90;99.90;;;;;;4996560;28;20198;-68
2022/10/23 02:16:28;;;;;;;0.00;0.00;;;12.90;99.90;;;;;;5004920;28;20265;-67
2022/10/23 02:18:59;;;;;;;0.00;0.00;;;12.80;99.90;;;;;;5007146;28;20180;-67
2022/10/23 02:21:53;;;;;;;0.00;0.00;;;12.80;99.90;;;;;;4993448;28;20725;-67
2022/10/23 02:24:29;;;;;;;0.20;0.20;;;12.70;99.90;;;;;;5002919;28;20187;-68
2022/10/23 02:26:59;;;;;;;0.00;0.00;;;12.70;99.90;;;;;;5002489;28;20229;-67
2022/10/23 02:29:37;;;;;;;0.00;0.00;;;12.70;99.90;;;;;;5012844;28;20222;-68
2022/10/23 02:32:05;;;;;;;0.00;0.00;;;12.70;99.90;;;;;;4994517;28;20183;-67
2022/10/23 02:34:30;;;;;;;0.10;0.10;;;12.70;99.90;;;;;;5001880;28;20183;-67
2022/10/23 02:36:56;;;;;;;0.00;0.00;;;12.60;99.90;;;;;;5004726;28;20191;-67
2022/10/23 02:39:25;;;;;;;0.00;0.00;;;12.70;99.90;;;;;;4997183;28;20207;-67
2022/10/23 02:42:12;;;;;;;0.00;0.00;;;12.60;99.90;;;;;;4998986;28;20671;-67
2022/10/23 02:44:57;;;;;;;0.00;0.00;;;12.60;99.90;;;;;;4994778;28;20183;-67
2022/10/23 02:47:46;;;;;;;0.00;0.00;;;12.60;99.90;;;;;;4993998;28;20186;-67
2022/10/23 02:50:56;;;;;;;0.00;0.00;;;12.50;99.90;;;;;;4994185;28;20658;-67
2022/10/23 02:53:40;;;;;;;0.10;0.10;;;12.50;99.90;;;;;;5003059;28;20191;-67
2022/10/23 02:56:21;;;;;;;0.00;0.00;;;12.50;99.90;;;;;;4999749;28;20175;-66
2022/10/23 02:58:53;;;;;;;0.00;0.00;;;12.50;99.90;;;;;;5009886;28;20201;-67
2022/10/23 03:01:25;;;;;;;0.08;0.08;;;12.50;99.90;;;;;;5012376;28;20202;-67
2022/10/23 03:03:54;;;;;;;0.00;0.00;;;12.50;99.90;;;;;;5010796;28;20701;-67
2022/10/23 03:06:21;;;;;;;0.00;0.00;;;12.50;99.90;;;;;;5000628;28;20182;-67
2022/10/23 03:08:53;;;;;;;0.00;0.00;;;12.50;99.90;;;;;;5010774;28;20190;-67
2022/10/23 03:11:19;;;;;;;0.73;0.57;;;12.40;99.90;;;;;;5000026;28;20186;-67
2022/10/23 03:13:45;;;;;;;0.00;0.00;;;12.40;99.90;;;;;;5003234;28;20198;-68
2022/10/23 03:16:10;;;;;;;0.00;0.00;;;12.40;99.90;;;;;;5007968;28;20191;-67
2022/10/23 03:18:36;;;;;;;0.00;0.00;;;12.40;99.90;;;;;;5011310;28;20684;-68
2022/10/23 03:21:02;;;;;;;0.00;0.00;;;12.40;99.90;;;;;;5004757;28;20210;-67
2022/10/23 03:23:27;;;;;;;0.60;0.25;;;12.40;99.90;;;;;;5007319;28;20246;-68
2022/10/23 03:25:54;;;;;;;0.00;0.00;;;12.50;99.90;;;;;;5011818;28;20198;-68
2022/10/23 03:28:20;;;;;;;0.00;0.00;;;12.50;99.90;;;;;;5004500;28;20179;-67
2022/10/23 03:30:46;;;;;;;0.10;0.10;;;12.50;99.90;;;;;;5015978;28;20588;-68
2022/10/23 03:33:11;;;;;;;0.00;0.00;;;12.50;99.90;;;;;;5015440;28;20613;-68
2022/10/23 03:35:37;;;;;;;0.08;0.08;;;12.50;99.90;;;;;;5008548;28;20198;-69
2022/10/23 03:38:03;;;;;;;0.10;0.10;;;12.50;99.90;;;;;;5015410;28;20245;-68
2022/10/23 03:40:28;;;;;;;0.00;0.00;;;12.50;99.90;;;;;;5012037;28;20233;-69
2022/10/23 03:42:54;;;;;;;0.00;0.00;;;12.50;99.90;;;;;;4996999;28;20273;-68
2022/10/23 03:45:19;;;;;;;0.00;0.00;;;12.50;99.90;;;;;;4997050;28;20179;-69
2022/10/23 03:47:45;;;;;;;0.10;0.10;;;12.50;99.90;;;;;;4998261;28;20194;-69
2022/10/23 03:50:12;;;;;;;0.00;0.00;;;12.50;99.90;;;;;;4996337;28;20211;-69
2022/10/23 03:52:38;;;;;;;0.52;0.32;;;12.50;99.90;;;;;;5010578;28;20540;-68
2022/10/23 03:55:05;;;;;;;0.00;0.00;;;12.50;99.90;;;;;;4998429;28;20198;-68
2022/10/23 03:57:31;;;;;;;0.00;0.00;;;12.50;99.90;;;;;;5000278;28;20179;-68
2022/10/23 03:59:56;;;;;;;0.00;0.00;;;12.60;99.90;;;;;;4999333;28;20184;-68
2022/10/23 04:02:22;;;;;;;0.00;0.00;;;12.60;99.90;;;;;;5015260;28;20268;-68
2022/10/23 04:04:47;;;;;;;0.00;0.00;;;12.60;99.90;;;;;;5015557;28;20187;-68
2022/10/23 04:07:13;;;;;;;0.17;0.17;;;12.70;99.90;;;;;;5010797;28;20318;-67
2022/10/23 04:09:38;;;;;;;0.00;0.00;;;12.70;99.90;;;;;;5002639;28;20187;-68
2022/10/23 04:12:04;;;;;;;0.00;0.00;;;12.70;99.90;;;;;;5007644;28;20171;-68
2022/10/23 04:14:30;;;;;;;0.00;0.00;;;12.70;99.90;;;;;;5000404;28;20206;-68
2022/10/23 04:16:56;;;;;;;0.00;0.00;;;12.70;99.90;;;;;;5010313;28;20637;-68
2022/10/23 04:19:21;;;;;;;0.00;0.00;;;12.70;99.90;;;;;;5009778;28;20223;-68
2022/10/23 04:21:47;;;;;;;0.05;0.05;;;12.70;99.90;;;;;;5014901;28;20269;-68
2022/10/23 04:24:12;;;;;;;0.00;0.00;;;12.70;99.90;;;;;;5013080;28;20190;-68
2022/10/23 04:26:38;;;;;;;0.00;0.00;;;12.70;99.90;;;;;;4999979;28;20175;-68
2022/10/23 04:29:03;;;;;;;0.00;0.00;;;12.70;99.90;;;;;;5011685;28;20231;-68
2022/10/23 04:31:29;;;;;;;0.00;0.00;;;12.70;99.90;;;;;;4999661;28;20194;-68
2022/10/23 04:33:54;;;;;;;0.00;0.00;;;12.70;99.90;;;;;;5012381;28;20262;-69
2022/10/23 04:36:20;;;;;;;0.08;0.00;;;12.70;99.90;;;;;;5014732;28;20194;-69
2022/10/23 04:38:46;;;;;;;0.00;0.00;;;12.70;99.90;;;;;;5011897;28;20175;-68
2022/10/23 04:41:12;;;;;;;0.00;0.00;;;12.70;99.90;;;;;;5009377;28;20203;-68
2022/10/23 04:43:37;;;;;;;0.00;0.00;;;12.70;99.90;;;;;;5014386;28;20183;-68
2022/10/23 04:46:03;;;;;;;0.00;0.00;;;12.70;99.90;;;;;;5011574;28;20250;-68
2022/10/23 04:48:29;;;;;;;0.00;0.00;;;12.70;99.90;;;;;;5007719;28;20190;-68
2022/10/23 04:50:59;;;;;;;0.00;0.00;;;12.70;99.90;;;;;;5000791;28;20181;-68
2022/10/23 04:53:26;;;;;;;0.00;0.00;;;12.80;99.90;;;;;;5003260;28;20840;-68
2022/10/23 04:55:54;;;;;;;0.00;0.00;;;12.80;99.90;;;;;;5008517;28;20264;-68
2022/10/23 04:58:20;;;;;;;0.00;0.00;;;12.80;99.90;;;;;;5010915;28;20182;-68
2022/10/23 05:00:46;;;;;;;0.00;0.00;;;12.80;99.90;;;;;;5002540;28;20196;-68
2022/10/23 05:03:12;;;;;;;1.08;0.08;;;12.80;99.90;;;;;;5010044;28;20187;-67
2022/10/23 05:05:38;;;;;;;0.00;0.00;;;12.80;99.90;;;;;;5012109;28;20175;-68
2022/10/23 05:08:03;;;;;;;0.00;0.00;;;12.80;99.90;;;;;;4994761;28;20187;-67
2022/10/23 05:10:29;;;;;;;0.00;0.00;;;12.90;99.90;;;;;;5007365;28;20313;-67
2022/10/23 05:12:55;;;;;;;0.00;0.00;;;12.90;99.90;;;;;;5006609;28;20347;-67
2022/10/23 05:15:20;;;;;;;0.00;0.00;;;12.90;99.90;;;;;;4993820;28;20539;-68
2022/10/23 05:17:50;;;;;;;0.00;0.00;;;12.90;99.90;;;;;;5003709;28;20192;-67
2022/10/23 05:20:21;;;;;;;0.00;0.00;;;12.90;99.90;;;;;;5007168;28;20226;-68
2022/10/23 05:22:50;;;;;;;0.10;0.10;;;12.90;99.90;;;;;;5003399;28;20262;-68
2022/10/23 05:25:16;;;;;;;0.00;0.00;;;12.80;99.90;;;;;;5005521;28;20658;-67
2022/10/23 05:27:41;;;;;;;0.00;0.00;;;12.80;99.90;;;;;;4997978;28;20184;-68
2022/10/23 05:30:08;;;;;;;0.00;0.00;;;12.80;99.90;;;;;;5002102;28;20343;-67
2022/10/23 05:32:34;;;;;;;0.00;0.00;;;12.80;99.90;;;;;;4995008;28;20179;-67
2022/10/23 05:35:05;;;;;;;0.20;0.20;;;12.80;99.90;;;;;;5008417;28;20218;-68
2022/10/23 05:37:31;;;;;;;0.00;0.00;;;12.80;99.90;;;;;;5013576;28;20195;-68
2022/10/23 05:39:56;;;;;;;0.00;0.00;;;12.80;99.90;;;;;;5009963;28;20222;-67
2022/10/23 05:42:22;;;;;;;0.40;0.08;;;12.80;99.90;;;;;;5007701;28;20211;-68
2022/10/23 05:44:48;;;;;;;0.00;0.00;;;12.80;99.90;;;;;;5000794;28;20333;-67
2022/10/23 05:47:13;;;;;;;0.15;0.15;;;12.80;99.90;;;;;;5005841;28;20183;-67
2022/10/23 05:49:39;;;;;;;0.10;0.10;;;12.80;99.90;;;;;;4999574;28;20179;-67
2022/10/23 05:52:04;;;;;;;0.00;0.00;;;12.70;99.90;;;;;;4996625;28;20192;-67
2022/10/23 05:54:30;;;;;;;0.00;0.00;;;12.70;99.90;;;;;;4997195;28;20171;-68
2022/10/23 05:56:56;;;;;;;0.00;0.00;;;12.70;99.90;;;;;;5006309;28;20179;-68
2022/10/23 05:59:21;;;;;;;0.20;0.20;;;12.70;99.90;;;;;;4993421;28;20181;-68
2022/10/23 06:01:47;;;;;;;0.00;0.00;;;12.70;99.90;;;;;;4995809;28;20222;-68
2022/10/23 06:04:12;;;;;;;0.20;0.10;;;12.70;99.90;;;;;;5006388;28;20171;-67
2022/10/23 06:06:38;;;;;;;0.00;0.00;;;12.70;99.90;;;;;;5012031;28;20273;-68
2022/10/23 06:09:04;;;;;;;0.13;0.13;;;12.70;99.90;;;;;;5001075;28;20203;-68
2022/10/23 06:11:29;;;;;;;0.00;0.00;;;12.70;99.90;;;;;;5012161;28;20209;-68
2022/10/23 06:13:55;;;;;;;0.00;0.00;;;12.70;99.90;;;;;;5011356;28;20179;-68
2022/10/23 06:16:25;;;;;;;0.00;0.00;;;12.60;99.90;;;;;;4999467;28;20632;-68
2022/10/23 06:18:51;;;;;;;0.00;0.00;;;12.60;99.90;;;;;;5002498;28;20175;-68
2022/10/23 06:21:17;;;;;;;0.00;0.00;;;12.60;99.90;;;;;;4993834;28;20650;-68
2022/10/23 06:23:44;;;;;;;0.20;0.10;;;12.60;99.90;;;;;;5006762;28;20222;-68
2022/10/23 06:26:12;;;;;;;0.00;0.00;;;12.70;99.90;;;;;;5011435;28;20543;-68
2022/10/23 06:28:39;;;;;;;0.00;0.00;;;12.70;99.90;;;;;;5012807;28;20581;-68
2022/10/23 06:31:06;;;;;;;0.00;0.00;;;12.80;99.90;;;;;;5010637;28;20549;-67
2022/10/23 06:33:31;;;;;;;0.00;0.00;;;12.80;99.90;;;;;;5012777;28;20193;-67
2022/10/23 06:35:57;;;;;;;0.00;0.00;;;12.80;99.90;;;;;;5012793;28;20187;-67
2022/10/23 06:38:23;;;;;;;0.00;0.00;;;12.90;99.90;;;;;;5012087;28;20671;-68
2022/10/23 06:40:55;;;;;;;0.20;0.20;;;12.90;99.90;;;;;;5006794;28;20213;-67
2022/10/23 06:43:21;;;;;;;0.00;0.00;;;13.00;99.90;;;;;;4992994;28;20194;-68
2022/10/23 06:45:46;;;;;;;0.00;0.00;;;13.00;99.90;;;;;;5009307;28;20179;-72
2022/10/23 06:48:12;;;;;;;0.00;0.00;;;13.10;99.90;;;;;;5005439;28;20218;-69
2022/10/23 06:50:38;;;;;;;0.00;0.00;;;13.10;99.90;;;;;;5010432;28;20190;-71
2022/10/23 06:53:04;;;;;;;0.00;0.00;;;13.20;99.90;;;;;;5009796;28;20191;-69
2022/10/23 06:55:31;;;;;;;0.20;0.20;;;13.20;99.90;;;;;;4999805;28;20183;-69
2022/10/23 06:57:56;;;;;;;0.05;0.05;;;13.20;99.90;;;;;;5001463;28;20206;-67
2022/10/23 07:00:22;;;;;;;0.08;0.08;;;13.20;99.90;;;;;;5012321;28;20891;-68
2022/10/23 07:02:48;;;;;;;0.00;0.00;;;13.30;99.90;;;;;;5005421;28;20207;-67
2022/10/23 07:05:14;;;;;;;0.00;0.00;;;13.30;99.90;;;;;;5010892;28;20183;-72
2022/10/23 07:07:39;;;;;;;0.77;0.55;;;13.30;99.90;;;;;;4996813;28;20248;-68
2022/10/23 07:10:05;;;;;;;0.32;0.30;;;13.30;99.90;;;;;;5012373;28;20622;-65
2022/10/23 07:12:31;;;;;;;0.00;0.00;;;13.30;99.90;;;;;;4995052;28;20187;-68
2022/10/23 07:14:56;;;;;;;0.00;0.00;;;13.30;99.90;;;;;;5011232;28;20229;-64
2022/10/23 07:17:22;;;;;;;0.00;0.00;;;13.30;99.90;;;;;;5005725;28;20266;-68
2022/10/23 07:19:47;;;;;;;0.10;0.10;;;13.40;99.90;;;;;;5012438;28;20182;-69
2022/10/23 07:22:13;;;;;;;0.00;0.00;;;13.50;99.90;;;;;;5005384;28;20572;-67
2022/10/23 07:24:39;;;;;;;0.47;0.25;;;13.60;99.90;;;;;;5012504;28;20186;-67
2022/10/23 07:27:05;;;;;;;0.00;0.00;;;13.70;99.90;;;;;;5002022;28;20179;-68
2022/10/23 07:29:31;;;;;;;0.00;0.00;;;14.00;99.90;;;;;;4992655;28;20229;-68
2022/10/23 07:31:59;;;;;;;0.00;0.00;;;14.20;99.90;;;;;;4996978;28;20673;-72
2022/10/23 07:34:25;;;;;;;0.00;0.00;;;14.50;99.90;;;;;;4997879;28;20202;-70
2022/10/23 07:36:51;;;;;;;0.00;0.00;;;14.80;99.90;;;;;;5001137;28;20179;-68
2022/10/23 07:39:16;;;;;;;0.00;0.00;;;15.10;99.90;;;;;;5009213;28;20190;-70
2022/10/23 07:41:42;;;;;;;0.15;0.15;;;15.30;99.90;;;;;;5018178;28;20362;-70
2022/10/23 07:44:07;;;;;;;0.00;0.00;;;15.60;99.90;;;;;;5011655;28;20245;-70
2022/10/23 07:46:33;;;;;;;0.00;0.00;;;15.80;99.90;;;;;;4992620;28;20617;-71
2022/10/23 07:48:58;;;;;;;0.00;0.00;;;16.00;99.90;;;;;;4992660;28;20221;-73
2022/10/23 07:51:24;;;;;;;0.00;0.00;;;16.10;99.90;;;;;;4992515;28;20180;-71
2022/10/23 07:53:50;;;;;;;0.00;0.00;;;16.20;99.90;;;;;;4997446;28;20177;-70
2022/10/23 07:56:21;;;;;;;0.00;0.00;;;16.30;99.90;;;;;;5000781;28;20237;-69
2022/10/23 07:58:46;;;;;;;0.00;0.00;;;16.50;99.90;;;;;;5009825;28;20642;-70
2022/10/23 08:01:19;;;;;;;0.00;0.00;;;16.60;99.90;;;;;;5007006;28;20218;-70
2022/10/23 08:03:45;;;;;;;0.00;0.00;;;16.70;99.90;;;;;;5010473;28;20194;-70
2022/10/23 08:06:11;;;;;;;0.00;0.00;;;16.90;99.90;;;;;;4996104;28;20188;-70
2022/10/23 08:08:37;;;;;;;0.00;0.00;;;17.10;99.90;;;;;;5001345;28;20191;-69
2022/10/23 08:11:02;;;;;;;0.00;0.00;;;17.40;99.90;;;;;;5009606;28;20514;-69
2022/10/23 08:13:28;;;;;;;0.00;0.00;;;17.50;99.90;;;;;;5004742;28;20544;-68
2022/10/23 08:15:54;;;;;;;0.00;0.00;;;17.70;99.90;;;;;;4997625;28;20254;-69
2022/10/23 08:18:20;;;;;;;0.00;0.00;;;17.80;99.90;;;;;;5015037;28;20532;-69
2022/10/23 08:20:47;;;;;;;0.00;0.00;;;17.80;99.90;;;;;;5003948;28;20266;-70
2022/10/23 08:23:17;;;;;;;0.00;0.00;;;17.90;99.90;;;;;;4995842;28;20180;-68
2022/10/23 08:25:42;;;;;;;0.00;0.00;;;18.00;99.90;;;;;;5002385;28;20235;-69
2022/10/23 08:28:09;;;;;;;0.00;0.00;;;18.10;99.90;;;;;;5010533;28;20179;-72
2022/10/23 08:30:35;;;;;;;0.00;0.00;;;18.20;99.90;;;;;;5004752;28;20227;-73
2022/10/23 08:33:05;;;;;;;0.10;0.10;;;18.30;99.90;;;;;;4996652;28;20262;-74
2022/10/23 08:35:35;;;;;;;0.00;0.00;;;18.40;99.90;;;;;;4995312;28;20179;-73
2022/10/23 08:38:01;;;;;;;0.00;0.00;;;18.50;99.90;;;;;;5008397;28;20190;-73
2022/10/23 08:40:26;;;;;;;0.00;0.00;;;18.60;99.90;;;;;;5014164;28;20202;-73
2022/10/23 08:43:01;;;;;;;0.00;0.00;;;18.70;99.90;;;;;;5013504;28;20207;-73
2022/10/23 08:45:54;;;;;;;0.00;0.00;;;18.80;99.90;;;;;;5013880;28;20197;-73
2022/10/23 08:48:24;;;;;;;0.00;0.00;;;18.80;99.90;;;;;;5013836;28;20645;-73
2022/10/23 08:51:04;;;;;;;0.00;0.00;;;18.90;99.90;;;;;;5013165;28;20697;-73
2022/10/23 08:53:40;;;;;;;0.03;0.03;;;19.10;99.90;;;;;;5014270;28;20187;-73
2022/10/23 08:56:33;;;;;;;0.00;0.00;;;19.30;99.90;;;;;;5014642;28;20189;-72
2022/10/23 08:59:24;;;;;;;0.00;0.00;;;19.60;99.90;;;;;;5009673;28;20249;-74
2022/10/23 09:02:07;;;;;;;0.00;0.00;;;19.80;99.90;;;;;;5014555;28;20214;-74
2022/10/23 09:04:33;;;;;;;0.00;0.00;;;20.00;99.90;;;;;;4995183;28;20172;-74
2022/10/23 09:07:34;;;;;;;0.00;0.00;;;20.10;99.90;;;;;;4995054;28;20262;-74
2022/10/23 09:10:21;;;;;;;0.10;0.10;;;20.30;99.90;;;;;;4995056;28;20180;-74
2022/10/23 09:12:47;;;;;;;0.00;0.00;;;20.40;99.90;;;;;;4994650;28;20707;-74
2022/10/23 09:15:35;;;;;;;0.00;0.00;;;20.50;99.90;;;;;;4994786;28;20267;-74
2022/10/23 09:18:10;;;;;;;0.00;0.00;;;20.60;99.90;;;;;;4994902;28;20279;-74
2022/10/23 09:20:38;;;;;;;0.00;0.00;;;20.70;99.90;;;;;;4994832;28;20204;-74
2022/10/23 09:23:18;;;;;;;0.00;0.00;;;20.80;99.90;;;;;;4994726;28;20610;-74
2022/10/23 09:25:45;;;;;;;0.00;0.00;;;21.00;99.90;;;;;;4994711;28;20172;-74
2022/10/23 09:28:27;;;;;;;0.00;0.00;;;21.20;99.90;;;;;;4994608;28;20274;-74
2022/10/23 09:30:52;;;;;;;0.00;0.00;;;21.30;99.90;;;;;;4994476;28;20709;-74
2022/10/23 09:33:20;;;;;;;0.00;0.00;;;21.50;99.90;;;;;;4993275;28;20171;-74
2022/10/23 09:35:59;;;;;;;0.00;0.00;;;21.60;99.90;;;;;;4994603;28;20191;-74
2022/10/23 09:38:46;;;;;;;0.00;0.00;;;21.80;99.10;;;;;;4994131;28;20287;-75
2022/10/23 09:41:33;;;;;;;0.00;0.00;;;21.80;99.70;;;;;;4994457;28;20203;-74
2022/10/23 09:44:15;;;;;;;0.00;0.00;;;21.90;98.90;;;;;;4994457;28;20203;-74
2022/10/23 09:46:46;;;;;;;0.00;0.00;;;22.00;99.70;;;;;;4994359;28;20187;-74
2022/10/23 09:49:33;;;;;;;0.00;0.00;;;22.00;98.60;;;;;;4994176;28;20179;-74
2022/10/23 09:52:20;;;;;;;0.00;0.00;;;22.10;97.50;;;;;;4994138;28;20539;-74
2022/10/23 09:54:55;;;;;;;0.00;0.00;;;22.20;97.50;;;;;;5001148;28;20198;-74
2022/10/23 09:57:27;;;;;;;0.08;0.08;;;22.20;97.50;;;;;;5013701;28;20206;-74
2022/10/23 09:59:56;;;;;;;0.00;0.00;;;22.30;97.10;;;;;;5012394;28;20179;-74
2022/10/23 10:02:28;;;;;;;0.00;0.00;;;22.30;96.20;;;;;;5013366;28;20555;-74
2022/10/23 10:04:54;;;;;;;0.00;0.00;;;22.20;97.10;;;;;;5013603;28;20213;-74
2022/10/23 10:07:29;;;;;;;0.00;0.00;;;22.20;97.20;;;;;;5012265;28;20649;-74
2022/10/23 10:09:56;;;;;;;0.00;0.00;;;22.10;96.60;;;;;;5013586;28;20519;-74
2022/10/23 10:12:36;;;;;;;0.00;0.00;;;22.10;96.50;;;;;;5013331;28;20197;-74
2022/10/23 10:15:11;;;;;;;0.00;0.00;;;22.10;96.80;;;;;;5013394;28;20194;-74
2022/10/23 10:17:49;;;;;;;0.00;0.00;;;22.10;96.80;;;;;;5013379;28;20265;-74
2022/10/23 10:20:50;;;;;;;0.00;0.00;;;22.30;96.50;;;;;;5013280;28;20213;-73
2022/10/23 10:23:31;;;;;;;0.00;0.00;;;22.40;96.90;;;;;;4991307;28;20229;-74
2022/10/23 10:26:08;;;;;;;0.00;0.00;;;22.60;96.40;;;;;;5011316;28;20182;-74
2022/10/23 10:29:03;;;;;;;0.00;0.00;;;22.80;95.70;;;;;;5013011;28;20649;-73
2022/10/23 10:31:46;;;;;;;0.00;0.00;;;22.90;95.00;;;;;;5013350;28;20274;-73
2022/10/23 10:34:39;;;;;;;0.00;0.00;;;23.00;94.90;;;;;;5013082;28;20581;-73
2022/10/23 10:37:30;;;;;;;0.00;0.00;;;23.00;94.40;;;;;;5013006;28;20634;-73
2022/10/23 10:39:59;;;;;;;0.00;0.00;;;23.10;94.30;;;;;;5013083;28;20197;-73
2022/10/23 10:42:59;;;;;;;0.00;0.00;;;23.10;94.80;;;;;;5013001;28;20268;-73
2022/10/23 10:45:33;;;;;;;0.00;0.00;;;23.20;95.10;;;;;;5012834;28;20198;-74
2022/10/23 10:48:24;;;;;;;0.00;0.00;;;23.30;94.00;;;;;;5011752;28;20627;-74
2022/10/23 10:51:01;;;;;;;0.00;0.00;;;23.30;93.10;;;;;;5012898;28;20186;-74
2022/10/23 10:53:41;;;;;;;0.00;0.00;;;23.40;93.90;;;;;;5012764;28;20265;-74
2022/10/23 10:56:11;;;;;;;0.00;0.00;;;23.60;93.90;;;;;;5012571;28;20264;-73
2022/10/23 10:58:38;;;;;;;0.00;0.00;;;23.60;92.70;;;;;;5012832;28;20175;-74
2022/10/23 11:01:25;;;;;;;0.00;0.00;;;23.60;93.00;;;;;;5012614;28;20186;-74
2022/10/23 11:04:21;;;;;;;0.00;0.00;;;23.60;93.50;;;;;;5012644;28;20187;-74
2022/10/23 11:06:52;;;;;;;0.00;0.00;;;23.40;93.10;;;;;;5012613;28;20175;-74
2022/10/23 11:09:25;;;;;;;0.00;0.00;;;23.40;93.20;;;;;;5012591;28;20180;-74
2022/10/23 11:11:51;;;;;;;0.00;0.00;;;23.50;93.30;;;;;;5012534;28;20174;-74
2022/10/23 11:14:25;;;;;;;0.00;0.00;;;23.60;93.50;;;;;;5012491;28;20174;-74
2022/10/23 11:16:57;;;;;;;0.00;0.00;;;23.60;93.50;;;;;;5011298;28;20189;-73
2022/10/23 11:19:36;;;;;;;0.00;0.00;;;23.60;93.80;;;;;;5011178;28;20171;-74
2022/10/23 11:22:35;;;;;;;0.17;0.17;;;23.50;93.70;;;;;;5012378;28;20217;-74
2022/10/23 11:25:35;;;;;;;1.27;0.22;;;23.40;93.40;;;;;;5012411;28;20179;-75
2022/10/23 11:28:28;;;;;;;0.00;0.00;;;23.30;93.90;;;;;;5012497;28;20249;-74
2022/10/23 11:30:59;;;;;;;0.00;0.00;;;23.10;94.10;;;;;;5012580;28;20206;-74
2022/10/23 11:33:52;;;;;;;0.00;0.00;;;23.00;94.00;;;;;;5012301;28;20178;-74
2022/10/23 11:36:31;;;;;;;0.00;0.00;;;22.90;93.90;;;;;;5013072;28;20175;-74
2022/10/23 11:39:20;;;;;;;0.00;0.00;;;22.80;94.40;;;;;;5016338;28;20182;-74
2022/10/23 11:41:53;;;;;;;0.00;0.00;;;22.80;94.10;;;;;;5016352;28;20218;-74
2022/10/23 11:44:42;;;;;;;0.00;0.00;;;22.70;94.00;;;;;;5016105;28;20178;-74
2022/10/23 11:47:28;;;;;;;0.00;0.00;;;22.70;94.30;;;;;;5016234;28;20179;-74
2022/10/23 11:50:06;;;;;;;0.00;0.00;;;22.60;94.50;;;;;;5016089;28;20190;-74
2022/10/23 11:52:33;;;;;;;0.00;0.00;;;22.60;94.50;;;;;;5015972;28;20614;-74
2022/10/23 11:55:26;;;;;;;0.00;0.00;;;22.50;94.50;;;;;;5015934;28;20641;-74
2022/10/23 11:58:03;;;;;;;0.00;0.00;;;22.50;94.70;;;;;;5014401;28;20191;-74
2022/10/23 12:00:31;;;;;;;0.00;0.00;;;22.40;94.40;;;;;;5015820;28;20206;-75
2022/10/23 12:02:58;;;;;;;0.00;0.00;;;22.50;94.70;;;;;;5015563;28;20856;-75
2022/10/23 12:05:36;;;;;;;0.00;0.00;;;22.60;94.80;;;;;;5015696;28;20181;-74
2022/10/23 12:08:04;;;;;;;0.00;0.00;;;22.60;94.30;;;;;;5015760;28;20191;-75
2022/10/23 12:10:33;;;;;;;0.00;0.00;;;22.60;94.10;;;;;;5015753;28;20525;-75
2022/10/23 12:13:37;;;;;;;0.00;0.00;;;22.60;94.90;;;;;;5015715;28;20183;-75
2022/10/23 12:16:06;;;;;;;0.00;0.00;;;22.60;94.50;;;;;;5013251;28;20186;-74
2022/10/23 12:18:32;;;;;;;0.00;0.00;;;22.60;94.80;;;;;;5015548;28;20580;-75
2022/10/23 12:20:59;;;;;;;0.00;0.00;;;22.60;95.10;;;;;;5014241;28;20233;-75
2022/10/23 12:23:49;;;;;;;0.00;0.00;;;22.70;94.90;;;;;;5015428;28;20232;-75
2022/10/23 12:26:27;;;;;;;0.00;0.00;;;22.70;95.20;;;;;;5015354;28;20539;-75
2022/10/23 12:29:33;;;;;;;0.00;0.00;;;22.80;95.00;;;;;;5015355;28;20455;-75
2022/10/23 12:32:07;;;;;;;0.00;0.00;;;22.90;94.80;;;;;;5015302;28;20213;-75
2022/10/23 12:34:44;;;;;;;0.00;0.00;;;23.00;94.30;;;;;;5015323;28;20270;-75
2022/10/23 12:37:21;;;;;;;0.00;0.00;;;23.10;94.20;;;;;;5014385;28;20205;-75
2022/10/23 12:39:52;;;;;;;0.00;0.00;;;23.20;93.70;;;;;;5015264;28;20269;-75
2022/10/23 12:42:23;;;;;;;0.00;0.00;;;23.40;93.70;;;;;;5014891;28;20218;-75
2022/10/23 12:45:04;;;;;;;0.00;0.00;;;23.50;93.60;;;;;;5015095;28;20522;-75
2022/10/23 12:47:30;;;;;;;0.00;0.00;;;23.60;93.20;;;;;;5014702;28;20179;-75
2022/10/23 12:49:55;;;;;;;0.00;0.00;;;23.60;92.00;;;;;;5014602;28;20185;-75
2022/10/23 12:52:23;;;;;;;0.10;0.10;;;23.60;92.20;;;;;;5014855;28;20178;-75
2022/10/23 12:54:49;;;;;;;0.00;0.00;;;23.60;92.20;;;;;;5010335;28;20187;-75
2022/10/23 12:57:24;;;;;;;0.00;0.00;;;23.50;92.40;;;;;;4995217;28;20184;-75
2022/10/23 12:59:55;;;;;;;0.00;0.00;;;23.50;92.70;;;;;;4995310;28;20179;-75
2022/10/23 13:02:25;;;;;;;0.00;0.00;;;23.40;93.10;;;;;;4998753;28;20246;-75
2022/10/23 13:04:53;;;;;;;0.00;0.00;;;23.50;93.30;;;;;;5014732;28;20175;-74
2022/10/23 13:07:22;;;;;;;0.00;0.00;;;23.60;93.00;;;;;;5014575;28;20185;-74
2022/10/23 13:09:48;;;;;;;0.00;0.00;;;23.70;92.20;;;;;;5014659;28;20578;-74
2022/10/23 13:12:26;;;;;;;0.00;0.00;;;23.70;91.70;;;;;;5013461;28;20178;-74